sensor_id;sensor_type;location;lat;lon;timestamp;pressure;altitude;pressure_sealevel;temperature;humidity
36598;BME280;22607;49.550;11.940;2023-02-18T00:01:21;97367.47;;;9.81;100.00
36598;BME280;22607;49.550;11.940;2023-02-18T00:03:49;97373.50;;;9.73;100.00
36598;BME280;22607;49.550;11.940;2023-02-18T00:06:21;97386.75;;;9.71;100.00
36598;BME280;22607;49.550;11.940;2023-02-18T00:08:48;97383.28;;;9.63;100.00
36598;BME280;22607;49.550;11.940;2023-02-18T00:11:16;97383.28;;;9.89;100.00
36598;BME280;22607;49.550;11.940;2023-02-18T00:13:49;97377.75;;;10.01;100.00
36598;BME280;22607;49.550;11.940;2023-02-18T00:16:15;97370.97;;;9.90;100.00
36598;BME280;22607;49.550;11.940;2023-02-18T00:18:42;97385.19;;;9.79;100.00
36598;BME280;22607;49.550;11.940;2023-02-18T00:21:08;97383.69;;;9.76;100.00
36598;BME280;22607;49.550;11.940;2023-02-18T00:23:35;97391.00;;;9.91;100.00
36598;BME280;22607;49.550;11.940;2023-02-18T00:26:07;97387.63;;;9.80;100.00
36598;BME280;22607;49.550;11.940;2023-02-18T00:28:35;97390.66;;;9.67;100.00
36598;BME280;22607;49.550;11.940;2023-02-18T00:31:09;97392.72;;;9.82;100.00
36598;BME280;22607;49.550;11.940;2023-02-18T00:33:36;97390.84;;;9.92;100.00
36598;BME280;22607;49.550;11.940;2023-02-18T00:36:04;97382.81;;;9.94;100.00
36598;BME280;22607;49.550;11.940;2023-02-18T00:38:32;97388.63;;;9.79;100.00
36598;BME280;22607;49.550;11.940;2023-02-18T00:40:59;97383.50;;;9.69;100.00
36598;BME280;22607;49.550;11.940;2023-02-18T00:43:26;97392.69;;;9.74;100.00
36598;BME280;22607;49.550;11.940;2023-02-18T00:45:53;97384.97;;;9.98;100.00
36598;BME280;22607;49.550;11.940;2023-02-18T00:48:20;97389.97;;;9.83;100.00
36598;BME280;22607;49.550;11.940;2023-02-18T00:50:47;97381.94;;;9.85;100.00
36598;BME280;22607;49.550;11.940;2023-02-18T00:53:13;97383.22;;;9.81;100.00
36598;BME280;22607;49.550;11.940;2023-02-18T00:55:41;97386.13;;;9.96;100.00
36598;BME280;22607;49.550;11.940;2023-02-18T00:58:09;97381.84;;;9.95;100.00
36598;BME280;22607;49.550;11.940;2023-02-18T01:00:37;97382.31;;;9.90;100.00
36598;BME280;22607;49.550;11.940;2023-02-18T01:03:04;97372.59;;;9.82;100.00
36598;BME280;22607;49.550;11.940;2023-02-18T01:05:33;97375.25;;;9.91;100.00
36598;BME280;22607;49.550;11.940;2023-02-18T01:08:02;97379.38;;;9.93;100.00
36598;BME280;22607;49.550;11.940;2023-02-18T01:10:28;97374.84;;;9.77;100.00
36598;BME280;22607;49.550;11.940;2023-02-18T01:12:55;97371.53;;;9.75;100.00
36598;BME280;22607;49.550;11.940;2023-02-18T01:15:22;97378.53;;;9.66;100.00
36598;BME280;22607;49.550;11.940;2023-02-18T01:17:48;97368.56;;;9.96;100.00
36598;BME280;22607;49.550;11.940;2023-02-18T01:20:18;97365.28;;;9.94;100.00
36598;BME280;22607;49.550;11.940;2023-02-18T01:22:45;97373.16;;;9.94;100.00
36598;BME280;22607;49.550;11.940;2023-02-18T01:25:12;97380.97;;;9.86;100.00
36598;BME280;22607;49.550;11.940;2023-02-18T01:27:38;97374.72;;;9.87;100.00
36598;BME280;22607;49.550;11.940;2023-02-18T01:30:07;97373.44;;;9.91;100.00
36598;BME280;22607;49.550;11.940;2023-02-18T01:32:34;97368.53;;;9.88;100.00
36598;BME280;22607;49.550;11.940;2023-02-18T01:35:02;97379.03;;;9.96;100.00
36598;BME280;22607;49.550;11.940;2023-02-18T01:37:30;97365.97;;;10.05;100.00
36598;BME280;22607;49.550;11.940;2023-02-18T01:39:57;97374.44;;;9.90;100.00
36598;BME280;22607;49.550;11.940;2023-02-18T01:42:27;97377.19;;;9.89;100.00
36598;BME280;22607;49.550;11.940;2023-02-18T01:48:15;97391.09;;;9.81;100.00
36598;BME280;22607;49.550;11.940;2023-02-18T01:50:45;97383.28;;;9.89;100.00
36598;BME280;22607;49.550;11.940;2023-02-18T01:53:14;97383.63;;;9.94;100.00
36598;BME280;22607;49.550;11.940;2023-02-18T01:55:42;97382.00;;;9.93;100.00
36598;BME280;22607;49.550;11.940;2023-02-18T01:58:10;97382.44;;;9.89;100.00
36598;BME280;22607;49.550;11.940;2023-02-18T02:00:39;97372.66;;;9.99;100.00
36598;BME280;22607;49.550;11.940;2023-02-18T02:03:06;97388.63;;;9.79;100.00
36598;BME280;22607;49.550;11.940;2023-02-18T02:05:33;97390.44;;;9.79;100.00
36598;BME280;22607;49.550;11.940;2023-02-18T02:08:00;97386.06;;;9.88;100.00
36598;BME280;22607;49.550;11.940;2023-02-18T02:10:38;97384.88;;;9.82;100.00
36598;BME280;22607;49.550;11.940;2023-02-18T02:13:18;97379.31;;;9.85;100.00
36598;BME280;22607;49.550;11.940;2023-02-18T02:15:57;97375.41;;;9.89;100.00
36598;BME280;22607;49.550;11.940;2023-02-18T02:18:40;97380.59;;;9.81;100.00
36598;BME280;22607;49.550;11.940;2023-02-18T02:21:39;97375.44;;;9.71;100.00
36598;BME280;22607;49.550;11.940;2023-02-18T02:27:19;97351.09;;;9.79;100.00
36598;BME280;22607;49.550;11.940;2023-02-18T02:38:18;97341.16;;;9.64;100.00
36598;BME280;22607;49.550;11.940;2023-02-18T02:40:58;97342.94;;;9.64;100.00
36598;BME280;22607;49.550;11.940;2023-02-18T02:46:10;97343.50;;;9.76;100.00
36598;BME280;22607;49.550;11.940;2023-02-18T02:51:23;97342.38;;;9.78;100.00
36598;BME280;22607;49.550;11.940;2023-02-18T02:53:52;97341.41;;;9.79;100.00
36598;BME280;22607;49.550;11.940;2023-02-18T02:56:23;97333.47;;;9.71;100.00
36598;BME280;22607;49.550;11.940;2023-02-18T02:59:01;97336.78;;;9.73;100.00
36598;BME280;22607;49.550;11.940;2023-02-18T03:22:04;97335.03;;;9.82;100.00
36598;BME280;22607;49.550;11.940;2023-02-18T03:24:45;97334.72;;;9.85;100.00
36598;BME280;22607;49.550;11.940;2023-02-18T03:27:15;97334.31;;;9.71;100.00
36598;BME280;22607;49.550;11.940;2023-02-18T03:29:45;97337.13;;;9.78;100.00
36598;BME280;22607;49.550;11.940;2023-02-18T03:32:16;97345.41;;;9.65;100.00
36598;BME280;22607;49.550;11.940;2023-02-18T03:34:48;97345.72;;;9.62;100.00
36598;BME280;22607;49.550;11.940;2023-02-18T03:37:19;97337.91;;;9.70;100.00
36598;BME280;22607;49.550;11.940;2023-02-18T03:39:48;97347.78;;;9.77;100.00
36598;BME280;22607;49.550;11.940;2023-02-18T03:42:17;97343.16;;;9.70;100.00
36598;BME280;22607;49.550;11.940;2023-02-18T03:44:44;97352.44;;;9.83;100.00
36598;BME280;22607;49.550;11.940;2023-02-18T03:47:10;97346.75;;;9.69;100.00
36598;BME280;22607;49.550;11.940;2023-02-18T03:49:39;97346.25;;;9.92;100.00
36598;BME280;22607;49.550;11.940;2023-02-18T03:52:06;97345.94;;;9.69;100.00
36598;BME280;22607;49.550;11.940;2023-02-18T03:54:32;97345.47;;;9.74;100.00
36598;BME280;22607;49.550;11.940;2023-02-18T03:56:59;97341.97;;;9.65;100.00
36598;BME280;22607;49.550;11.940;2023-02-18T03:59:26;97346.56;;;9.63;100.00
36598;BME280;22607;49.550;11.940;2023-02-18T04:01:53;97341.53;;;9.69;100.00
36598;BME280;22607;49.550;11.940;2023-02-18T04:04:19;97346.75;;;9.69;100.00
36598;BME280;22607;49.550;11.940;2023-02-18T04:06:46;97340.84;;;9.67;100.00
36598;BME280;22607;49.550;11.940;2023-02-18T04:09:12;97345.16;;;9.50;100.00
36598;BME280;22607;49.550;11.940;2023-02-18T04:11:39;97349.47;;;9.59;100.00
36598;BME280;22607;49.550;11.940;2023-02-18T04:14:06;97343.38;;;9.77;100.00
36598;BME280;22607;49.550;11.940;2023-02-18T04:16:33;97341.66;;;9.68;100.00
36598;BME280;22607;49.550;11.940;2023-02-18T04:19:00;97339.25;;;9.75;100.00
36598;BME280;22607;49.550;11.940;2023-02-18T04:21:27;97335.16;;;9.54;100.00
36598;BME280;22607;49.550;11.940;2023-02-18T04:23:53;97338.72;;;9.71;100.00
36598;BME280;22607;49.550;11.940;2023-02-18T04:26:33;97338.91;;;9.69;100.00
36598;BME280;22607;49.550;11.940;2023-02-18T04:28:59;97342.44;;;9.60;100.00
36598;BME280;22607;49.550;11.940;2023-02-18T04:31:26;97341.19;;;9.72;100.00
36598;BME280;22607;49.550;11.940;2023-02-18T04:33:52;97346.91;;;9.68;100.00
36598;BME280;22607;49.550;11.940;2023-02-18T04:36:19;97355.22;;;9.63;100.00
36598;BME280;22607;49.550;11.940;2023-02-18T04:38:45;97346.34;;;9.82;100.00
36598;BME280;22607;49.550;11.940;2023-02-18T04:41:16;97356.56;;;9.67;100.00
36598;BME280;22607;49.550;11.940;2023-02-18T04:43:42;97359.75;;;9.79;100.00
36598;BME280;22607;49.550;11.940;2023-02-18T04:46:09;97356.94;;;9.72;100.00
36598;BME280;22607;49.550;11.940;2023-02-18T04:48:36;97353.72;;;9.79;100.00
36598;BME280;22607;49.550;11.940;2023-02-18T04:51:09;97354.00;;;9.76;100.00
36598;BME280;22607;49.550;11.940;2023-02-18T04:53:36;97351.59;;;9.82;100.00
36598;BME280;22607;49.550;11.940;2023-02-18T04:56:03;97350.16;;;9.88;100.00
36598;BME280;22607;49.550;11.940;2023-02-18T04:58:30;97349.19;;;9.89;100.00
36598;BME280;22607;49.550;11.940;2023-02-18T05:01:01;97346.69;;;9.88;100.00
36598;BME280;22607;49.550;11.940;2023-02-18T05:03:29;97355.78;;;9.75;100.00
36598;BME280;22607;49.550;11.940;2023-02-18T05:05:56;97359.53;;;9.91;100.00
36598;BME280;22607;49.550;11.940;2023-02-18T05:08:23;97353.94;;;9.94;100.00
36598;BME280;22607;49.550;11.940;2023-02-18T05:10:49;97358.97;;;9.87;100.00
36598;BME280;22607;49.550;11.940;2023-02-18T05:13:16;97352.88;;;9.78;100.00
36598;BME280;22607;49.550;11.940;2023-02-18T05:15:43;97351.59;;;9.82;100.00
36598;BME280;22607;49.550;11.940;2023-02-18T05:18:09;97351.50;;;9.92;100.00
36598;BME280;22607;49.550;11.940;2023-02-18T05:20:36;97345.84;;;9.79;100.00
36598;BME280;22607;49.550;11.940;2023-02-18T05:23:02;97348.28;;;9.80;100.00
36598;BME280;22607;49.550;11.940;2023-02-18T05:25:35;97337.34;;;9.85;100.00
36598;BME280;22607;49.550;11.940;2023-02-18T05:28:01;97333.88;;;9.84;100.00
36598;BME280;22607;49.550;11.940;2023-02-18T05:30:28;97337.63;;;9.74;100.00
36598;BME280;22607;49.550;11.940;2023-02-18T05:32:54;97339.13;;;9.84;100.00
36598;BME280;22607;49.550;11.940;2023-02-18T05:35:21;97347.06;;;9.93;100.00
36598;BME280;22607;49.550;11.940;2023-02-18T05:37:53;97352.78;;;9.88;100.00
36598;BME280;22607;49.550;11.940;2023-02-18T05:40:20;97352.78;;;9.88;100.00
36598;BME280;22607;49.550;11.940;2023-02-18T05:42:47;97338.63;;;9.81;100.00
36598;BME280;22607;49.550;11.940;2023-02-18T05:45:14;97350.56;;;9.75;100.00
36598;BME280;22607;49.550;11.940;2023-02-18T05:47:40;97353.72;;;9.79;100.00
36598;BME280;22607;49.550;11.940;2023-02-18T05:50:07;97349.19;;;9.89;100.00
36598;BME280;22607;49.550;11.940;2023-02-18T05:52:34;97345.22;;;9.85;100.00
36598;BME280;22607;49.550;11.940;2023-02-18T05:55:00;97341.88;;;9.75;100.00
36598;BME280;22607;49.550;11.940;2023-02-18T05:57:27;97336.69;;;9.83;100.00
36598;BME280;22607;49.550;11.940;2023-02-18T05:59:55;97344.81;;;9.71;100.00
36598;BME280;22607;49.550;11.940;2023-02-18T06:02:23;97336.56;;;9.66;100.00
36598;BME280;22607;49.550;11.940;2023-02-18T06:04:50;97334.22;;;9.55;100.00
36598;BME280;22607;49.550;11.940;2023-02-18T06:07:16;97337.00;;;9.80;100.00
36598;BME280;22607;49.550;11.940;2023-02-18T06:09:43;97333.66;;;9.69;100.00
36598;BME280;22607;49.550;11.940;2023-02-18T06:12:10;97331.59;;;9.55;100.00
36598;BME280;22607;49.550;11.940;2023-02-18T06:14:37;97337.50;;;9.57;100.00
36598;BME280;22607;49.550;11.940;2023-02-18T06:17:03;97333.31;;;9.72;100.00
36598;BME280;22607;49.550;11.940;2023-02-18T06:19:30;97327.09;;;9.47;100.00
36598;BME280;22607;49.550;11.940;2023-02-18T06:21:56;97323.97;;;9.43;100.00
36598;BME280;22607;49.550;11.940;2023-02-18T06:24:23;97319.69;;;9.69;100.00
36598;BME280;22607;49.550;11.940;2023-02-18T06:26:49;97316.22;;;9.60;100.00
36598;BME280;22607;49.550;11.940;2023-02-18T06:29:16;97320.63;;;9.59;100.00
36598;BME280;22607;49.550;11.940;2023-02-18T06:31:42;97322.06;;;9.54;100.00
36598;BME280;22607;49.550;11.940;2023-02-18T06:34:15;97316.00;;;9.80;100.00
36598;BME280;22607;49.550;11.940;2023-02-18T06:36:42;97313.03;;;9.75;100.00
36598;BME280;22607;49.550;11.940;2023-02-18T06:39:08;97319.78;;;9.59;100.00
36598;BME280;22607;49.550;11.940;2023-02-18T06:41:34;97307.72;;;9.66;100.00
36598;BME280;22607;49.550;11.940;2023-02-18T06:44:02;97302.38;;;9.50;100.00
36598;BME280;22607;49.550;11.940;2023-02-18T06:46:29;97292.97;;;9.65;100.00
36598;BME280;22607;49.550;11.940;2023-02-18T06:48:55;97293.97;;;9.72;100.00
36598;BME280;22607;49.550;11.940;2023-02-18T06:51:22;97306.38;;;9.62;100.00
36598;BME280;22607;49.550;11.940;2023-02-18T06:53:48;97298.94;;;9.49;100.00
36598;BME280;22607;49.550;11.940;2023-02-18T06:56:15;97298.72;;;9.42;100.00
36598;BME280;22607;49.550;11.940;2023-02-18T06:58:42;97292.72;;;9.50;100.00
36598;BME280;22607;49.550;11.940;2023-02-18T07:01:08;97295.25;;;9.60;100.00
36598;BME280;22607;49.550;11.940;2023-02-18T07:03:35;97278.97;;;9.56;100.00
36598;BME280;22607;49.550;11.940;2023-02-18T07:06:02;97280.47;;;9.59;100.00
36598;BME280;22607;49.550;11.940;2023-02-18T07:08:29;97275.06;;;9.61;100.00
36598;BME280;22607;49.550;11.940;2023-02-18T07:10:56;97276.59;;;9.71;100.00
36598;BME280;22607;49.550;11.940;2023-02-18T07:13:22;97269.88;;;9.69;100.00
36598;BME280;22607;49.550;11.940;2023-02-18T07:15:49;97280.22;;;9.70;100.00
36598;BME280;22607;49.550;11.940;2023-02-18T07:18:21;97268.19;;;9.59;100.00
36598;BME280;22607;49.550;11.940;2023-02-18T07:20:50;97277.59;;;9.70;100.00
36598;BME280;22607;49.550;11.940;2023-02-18T07:23:21;97278.22;;;9.64;100.00
36598;BME280;22607;49.550;11.940;2023-02-18T07:25:48;97267.00;;;9.54;100.00
36598;BME280;22607;49.550;11.940;2023-02-18T07:28:15;97259.88;;;9.64;100.00
36598;BME280;22607;49.550;11.940;2023-02-18T07:30:41;97253.22;;;9.52;100.00
36598;BME280;22607;49.550;11.940;2023-02-18T07:33:08;97259.13;;;9.54;100.00
36598;BME280;22607;49.550;11.940;2023-02-18T07:35:37;97261.38;;;9.75;100.00
36598;BME280;22607;49.550;11.940;2023-02-18T07:38:13;97259.69;;;9.39;100.00
36598;BME280;22607;49.550;11.940;2023-02-18T07:40:39;97262.94;;;9.59;100.00
36598;BME280;22607;49.550;11.940;2023-02-18T07:43:06;97255.16;;;9.50;100.00
36598;BME280;22607;49.550;11.940;2023-02-18T07:45:32;97262.16;;;9.67;100.00
36598;BME280;22607;49.550;11.940;2023-02-18T07:47:59;97266.97;;;9.80;100.00
36598;BME280;22607;49.550;11.940;2023-02-18T07:50:26;97273.53;;;9.50;100.00
36598;BME280;22607;49.550;11.940;2023-02-18T07:52:52;97275.28;;;9.67;100.00
36598;BME280;22607;49.550;11.940;2023-02-18T07:55:19;97269.53;;;9.64;100.00
36598;BME280;22607;49.550;11.940;2023-02-18T07:57:45;97272.78;;;9.66;100.00
36598;BME280;22607;49.550;11.940;2023-02-18T08:00:32;97273.94;;;9.63;100.00
36598;BME280;22607;49.550;11.940;2023-02-18T08:02:58;97276.88;;;9.60;100.00
36598;BME280;22607;49.550;11.940;2023-02-18T08:05:25;97272.69;;;9.76;100.00
36598;BME280;22607;49.550;11.940;2023-02-18T08:07:51;97276.34;;;9.56;100.00
36598;BME280;22607;49.550;11.940;2023-02-18T08:10:18;97260.81;;;9.63;100.00
36598;BME280;22607;49.550;11.940;2023-02-18T08:12:44;97266.50;;;9.85;100.00
36598;BME280;22607;49.550;11.940;2023-02-18T08:15:12;97266.97;;;9.80;100.00
36598;BME280;22607;49.550;11.940;2023-02-18T08:17:40;97263.59;;;9.96;100.00
36598;BME280;22607;49.550;11.940;2023-02-18T08:20:08;97265.53;;;9.86;100.00
36598;BME280;22607;49.550;11.940;2023-02-18T08:22:36;97258.50;;;9.87;100.00
36598;BME280;22607;49.550;11.940;2023-02-18T08:25:03;97259.63;;;9.84;100.00
36598;BME280;22607;49.550;11.940;2023-02-18T08:27:30;97263.03;;;9.76;100.00
36598;BME280;22607;49.550;11.940;2023-02-18T08:29:57;97248.94;;;9.77;100.00
36598;BME280;22607;49.550;11.940;2023-02-18T08:32:26;97263.72;;;9.87;100.00
36598;BME280;22607;49.550;11.940;2023-02-18T08:34:54;97253.63;;;10.00;100.00
36598;BME280;22607;49.550;11.940;2023-02-18T08:37:21;97249.97;;;9.93;100.00
36598;BME280;22607;49.550;11.940;2023-02-18T08:39:49;97240.34;;;10.02;100.00
36598;BME280;22607;49.550;11.940;2023-02-18T08:42:16;97252.03;;;10.16;100.00
36598;BME280;22607;49.550;11.940;2023-02-18T08:44:43;97242.63;;;10.05;100.00
36598;BME280;22607;49.550;11.940;2023-02-18T08:47:09;97238.09;;;10.23;100.00
36598;BME280;22607;49.550;11.940;2023-02-18T08:50:05;97232.63;;;10.52;100.00
36598;BME280;22607;49.550;11.940;2023-02-18T08:52:32;97218.00;;;11.24;100.00
36598;BME280;22607;49.550;11.940;2023-02-18T08:55:05;97219.44;;;11.43;100.00
36598;BME280;22607;49.550;11.940;2023-02-18T08:57:37;97223.41;;;11.31;100.00
36598;BME280;22607;49.550;11.940;2023-02-18T09:00:05;97225.69;;;11.42;100.00
36598;BME280;22607;49.550;11.940;2023-02-18T09:02:35;97211.19;;;11.46;100.00
36598;BME280;22607;49.550;11.940;2023-02-18T09:05:08;97213.53;;;11.41;100.00
36598;BME280;22607;49.550;11.940;2023-02-18T09:07:35;97208.47;;;11.23;100.00
36598;BME280;22607;49.550;11.940;2023-02-18T09:10:03;97208.16;;;11.26;100.00
36598;BME280;22607;49.550;11.940;2023-02-18T09:12:31;97207.63;;;11.31;100.00
36598;BME280;22607;49.550;11.940;2023-02-18T09:14:58;97178.06;;;11.77;100.00
36598;BME280;22607;49.550;11.940;2023-02-18T09:17:26;97184.84;;;12.34;100.00
36598;BME280;22607;49.550;11.940;2023-02-18T09:19:53;97180.81;;;12.47;100.00
36598;BME280;22607;49.550;11.940;2023-02-18T09:22:19;97181.28;;;12.74;100.00
36598;BME280;22607;49.550;11.940;2023-02-18T09:24:46;97178.09;;;12.08;100.00
36598;BME280;22607;49.550;11.940;2023-02-18T09:27:19;97187.38;;;11.88;100.00
36598;BME280;22607;49.550;11.940;2023-02-18T09:29:47;97166.75;;;11.68;100.00
36598;BME280;22607;49.550;11.940;2023-02-18T09:32:16;97175.03;;;12.28;100.00
36598;BME280;22607;49.550;11.940;2023-02-18T09:35:00;97173.59;;;11.86;100.00
36598;BME280;22607;49.550;11.940;2023-02-18T09:37:28;97174.53;;;11.93;100.00
36598;BME280;22607;49.550;11.940;2023-02-18T09:39:54;97173.44;;;12.66;100.00
36598;BME280;22607;49.550;11.940;2023-02-18T09:42:30;97182.22;;;12.34;100.00
36598;BME280;22607;49.550;11.940;2023-02-18T09:45:01;97184.78;;;12.19;100.00
36598;BME280;22607;49.550;11.940;2023-02-18T09:47:37;97174.88;;;11.90;100.00
36598;BME280;22607;49.550;11.940;2023-02-18T09:50:26;97173.88;;;11.91;100.00
36598;BME280;22607;49.550;11.940;2023-02-18T09:52:55;97177.63;;;12.05;100.00
36598;BME280;22607;49.550;11.940;2023-02-18T09:55:36;97192.59;;;11.96;100.00
36598;BME280;22607;49.550;11.940;2023-02-18T09:58:13;97180.75;;;12.00;100.00
36598;BME280;22607;49.550;11.940;2023-02-18T10:00:45;97179.41;;;12.13;100.00
36598;BME280;22607;49.550;11.940;2023-02-18T10:03:22;97178.84;;;11.86;100.00
36598;BME280;22607;49.550;11.940;2023-02-18T10:05:57;97158.75;;;12.71;100.00
36598;BME280;22607;49.550;11.940;2023-02-18T10:08:33;97163.56;;;12.83;100.00
36598;BME280;22607;49.550;11.940;2023-02-18T10:11:00;97167.25;;;12.58;100.00
36598;BME280;22607;49.550;11.940;2023-02-18T10:13:31;97159.75;;;12.85;100.00
36598;BME280;22607;49.550;11.940;2023-02-18T10:15:58;97167.56;;;12.08;100.00
36598;BME280;22607;49.550;11.940;2023-02-18T10:18:43;97155.94;;;12.50;100.00
36598;BME280;22607;49.550;11.940;2023-02-18T10:21:14;97159.25;;;12.67;100.00
36598;BME280;22607;49.550;11.940;2023-02-18T10:23:50;97151.31;;;12.28;100.00
36598;BME280;22607;49.550;11.940;2023-02-18T10:26:18;97148.22;;;12.48;100.00
36598;BME280;22607;49.550;11.940;2023-02-18T10:28:46;97149.75;;;12.42;100.00
36598;BME280;22607;49.550;11.940;2023-02-18T10:31:24;97146.28;;;12.18;100.00
36598;BME280;22607;49.550;11.940;2023-02-18T10:34:14;97163.47;;;11.66;100.00
36598;BME280;22607;49.550;11.940;2023-02-18T10:36:55;97130.13;;;11.90;100.00
36598;BME280;22607;49.550;11.940;2023-02-18T10:52:20;97111.00;;;11.96;100.00
36598;BME280;22607;49.550;11.940;2023-02-18T10:57:20;97110.59;;;12.16;100.00
36598;BME280;22607;49.550;11.940;2023-02-18T11:02:41;97110.22;;;11.55;100.00
36598;BME280;22607;49.550;11.940;2023-02-18T11:05:26;97092.09;;;11.69;100.00
36598;BME280;22607;49.550;11.940;2023-02-18T11:07:57;97110.38;;;11.94;100.00
36598;BME280;22607;49.550;11.940;2023-02-18T11:10:31;97098.28;;;12.08;100.00
36598;BME280;22607;49.550;11.940;2023-02-18T11:13:07;97092.97;;;12.16;100.00
36598;BME280;22607;49.550;11.940;2023-02-18T11:15:35;97103.28;;;11.94;100.00
36598;BME280;22607;49.550;11.940;2023-02-18T11:21:02;97084.34;;;12.07;100.00
36598;BME280;22607;49.550;11.940;2023-02-18T11:23:31;97078.63;;;11.95;100.00
36598;BME280;22607;49.550;11.940;2023-02-18T11:26:15;97071.28;;;11.82;100.00
36598;BME280;22607;49.550;11.940;2023-02-18T11:28:45;97087.38;;;11.88;100.00
36598;BME280;22607;49.550;11.940;2023-02-18T11:31:22;97073.28;;;11.80;100.00
36598;BME280;22607;49.550;11.940;2023-02-18T11:34:00;97081.94;;;12.21;100.00
36598;BME280;22607;49.550;11.940;2023-02-18T11:36:33;97076.53;;;12.38;97.61
36598;BME280;22607;49.550;11.940;2023-02-18T11:39:22;97061.22;;;12.18;99.65
36598;BME280;22607;49.550;11.940;2023-02-18T11:42:01;97056.56;;;12.43;95.61
36598;BME280;22607;49.550;11.940;2023-02-18T11:44:36;97051.69;;;12.55;97.06
36598;BME280;22607;49.550;11.940;2023-02-18T11:49:41;97050.13;;;12.23;91.63
36598;BME280;22607;49.550;11.940;2023-02-18T11:52:45;97051.00;;;11.91;93.89
36598;BME280;22607;49.550;11.940;2023-02-18T11:58:04;97036.22;;;12.14;95.50
36598;BME280;22607;49.550;11.940;2023-02-18T12:00:46;97038.25;;;12.03;92.10
36598;BME280;22607;49.550;11.940;2023-02-18T12:03:43;97034.00;;;12.02;92.40
36598;BME280;22607;49.550;11.940;2023-02-18T12:06:29;97030.34;;;12.12;92.33
36598;BME280;22607;49.550;11.940;2023-02-18T12:09:04;97035.63;;;12.03;90.42
36598;BME280;22607;49.550;11.940;2023-02-18T12:11:36;97039.94;;;11.96;91.50
36598;BME280;22607;49.550;11.940;2023-02-18T12:14:13;97030.13;;;12.13;90.24
36598;BME280;22607;49.550;11.940;2023-02-18T12:22:01;97029.38;;;12.04;88.37
36598;BME280;22607;49.550;11.940;2023-02-18T12:28:27;97023.88;;;11.91;89.14
36598;BME280;22607;49.550;11.940;2023-02-18T12:36:00;97020.50;;;12.05;89.93
36598;BME280;22607;49.550;11.940;2023-02-18T12:54:09;97005.75;;;12.34;86.63
36598;BME280;22607;49.550;11.940;2023-02-18T12:59:49;97005.13;;;12.32;87.21
36598;BME280;22607;49.550;11.940;2023-02-18T13:07:35;96990.13;;;12.18;87.37
36598;BME280;22607;49.550;11.940;2023-02-18T13:10:24;96991.81;;;12.11;87.29
36598;BME280;22607;49.550;11.940;2023-02-18T13:13:16;96975.88;;;12.04;86.68
36598;BME280;22607;49.550;11.940;2023-02-18T13:15:53;96990.78;;;12.35;84.70
36598;BME280;22607;49.550;11.940;2023-02-18T13:21:12;96986.06;;;12.30;84.68
36598;BME280;22607;49.550;11.940;2023-02-18T13:24:03;96962.34;;;12.15;85.31
36598;BME280;22607;49.550;11.940;2023-02-18T13:26:32;96961.41;;;12.08;84.88
36598;BME280;22607;49.550;11.940;2023-02-18T13:29:21;96943.00;;;12.00;86.43
36598;BME280;22607;49.550;11.940;2023-02-18T13:35:07;96943.50;;;12.03;86.22
36598;BME280;22607;49.550;11.940;2023-02-18T13:40:30;96963.16;;;11.92;84.13
36598;BME280;22607;49.550;11.940;2023-02-18T13:49:05;96960.00;;;11.97;84.68
36598;BME280;22607;49.550;11.940;2023-02-18T13:51:39;96958.59;;;12.10;85.04
36598;BME280;22607;49.550;11.940;2023-02-18T13:56:44;96959.16;;;12.20;81.95
36598;BME280;22607;49.550;11.940;2023-02-18T13:59:34;96953.78;;;12.13;81.64
36598;BME280;22607;49.550;11.940;2023-02-18T14:02:36;96952.47;;;11.94;84.63
36598;BME280;22607;49.550;11.940;2023-02-18T14:05:19;96951.56;;;12.02;85.60
36598;BME280;22607;49.550;11.940;2023-02-18T14:08:04;96962.34;;;12.15;83.13
36598;BME280;22607;49.550;11.940;2023-02-18T14:10:34;96951.81;;;11.92;86.22
36598;BME280;22607;49.550;11.940;2023-02-18T14:15:56;96954.81;;;12.27;83.42
36598;BME280;22607;49.550;11.940;2023-02-18T14:18:57;96931.81;;;12.06;85.83
36598;BME280;22607;49.550;11.940;2023-02-18T14:21:40;96941.19;;;12.08;84.63
36598;BME280;22607;49.550;11.940;2023-02-18T14:24:12;96956.91;;;11.93;87.48
36598;BME280;22607;49.550;11.940;2023-02-18T14:26:48;96952.41;;;11.79;87.58
36598;BME280;22607;49.550;11.940;2023-02-18T14:29:29;96961.34;;;11.93;87.50
36598;BME280;22607;49.550;11.940;2023-02-18T14:32:00;96948.56;;;11.90;86.84
36598;BME280;22607;49.550;11.940;2023-02-18T14:51:25;96947.53;;;11.91;89.55
36598;BME280;22607;49.550;11.940;2023-02-18T14:53:54;96953.03;;;11.66;93.20
36598;BME280;22607;49.550;11.940;2023-02-18T14:56:23;96971.31;;;11.59;97.00
36598;BME280;22607;49.550;11.940;2023-02-18T14:58:57;96984.94;;;11.63;100.00
36598;BME280;22607;49.550;11.940;2023-02-18T15:01:34;96975.66;;;11.43;100.00
36598;BME280;22607;49.550;11.940;2023-02-18T15:04:02;96976.59;;;11.27;100.00
36598;BME280;22607;49.550;11.940;2023-02-18T15:06:31;96979.94;;;11.13;100.00
36598;BME280;22607;49.550;11.940;2023-02-18T15:09:01;96976.81;;;11.18;100.00
36598;BME280;22607;49.550;11.940;2023-02-18T15:11:40;96983.56;;;11.12;100.00
36598;BME280;22607;49.550;11.940;2023-02-18T15:14:13;96978.91;;;11.22;100.00
36598;BME280;22607;49.550;11.940;2023-02-18T15:16:43;96983.59;;;11.03;100.00
36598;BME280;22607;49.550;11.940;2023-02-18T15:19:15;96980.63;;;11.15;100.00
36598;BME280;22607;49.550;11.940;2023-02-18T15:21:49;96997.31;;;10.90;100.00
36598;BME280;22607;49.550;11.940;2023-02-18T15:26:45;96998.41;;;11.05;100.00
36598;BME280;22607;49.550;11.940;2023-02-18T15:29:21;96996.13;;;10.93;100.00
36598;BME280;22607;49.550;11.940;2023-02-18T15:31:48;97008.97;;;10.88;100.00